createdAt,value
2023-01-04T00:00:00.368Z,8.40
2023-01-04T00:03:09.397Z,11.10
2023-01-04T00:06:05.210Z,8.70
2023-01-04T00:08:54.514Z,12.50
2023-01-04T00:11:42.719Z,16.00
2023-01-04T00:14:31.271Z,10.30
2023-01-04T00:17:19.417Z,12.30
2023-01-04T00:20:09.639Z,11.20
2023-01-04T00:23:00.845Z,12.30
2023-01-04T00:25:49.479Z,11.80
2023-01-04T00:28:39.179Z,8.60
2023-01-04T00:31:29.843Z,9.90
2023-01-04T00:34:19.628Z,14.00
2023-01-04T00:37:08.088Z,12.80
2023-01-04T00:39:56.562Z,11.90
2023-01-04T00:42:44.603Z,11.80
2023-01-04T00:45:33.441Z,14.40
2023-01-04T00:48:22.102Z,9.60
2023-01-04T00:51:10.051Z,13.70
2023-01-04T00:54:00.946Z,9.00
2023-01-04T00:56:50.524Z,12.60
2023-01-04T00:59:38.696Z,12.90
2023-01-04T01:02:27.507Z,11.60
2023-01-04T01:05:16.531Z,10.10
2023-01-04T01:08:24.880Z,11.90
2023-01-04T01:11:15.774Z,11.80
2023-01-04T01:14:05.417Z,14.00
2023-01-04T01:16:56.974Z,11.70
2023-01-04T01:19:45.876Z,13.00
2023-01-04T01:22:36.369Z,15.30
2023-01-04T01:25:24.520Z,11.60
2023-01-04T01:28:13.989Z,12.70
2023-01-04T01:31:27.386Z,14.40
2023-01-04T01:34:18.336Z,9.40
2023-01-04T01:37:06.885Z,12.40
2023-01-04T01:39:55.080Z,9.70
2023-01-04T01:42:43.785Z,11.30
2023-01-04T01:45:34.688Z,11.30
2023-01-04T01:48:29.156Z,10.70
2023-01-04T01:51:19.683Z,12.10
2023-01-04T01:54:20.875Z,12.70
2023-01-04T01:57:14.178Z,10.80
2023-01-04T02:00:15.096Z,12.30
2023-01-04T02:03:16.820Z,10.90
2023-01-04T02:06:10.614Z,11.80
2023-01-04T02:09:01.456Z,11.30
2023-01-04T02:11:49.989Z,11.70
2023-01-04T02:14:39.334Z,12.50
2023-01-04T02:17:32.184Z,11.90
2023-01-04T02:20:26.253Z,11.50
2023-01-04T02:23:52.275Z,10.30
2023-01-04T02:26:55.952Z,12.10
2023-01-04T02:30:09.428Z,12.20
2023-01-04T02:33:35.817Z,13.60
2023-01-04T02:37:01.799Z,13.60
2023-01-04T02:40:11.180Z,12.50
2023-01-04T02:43:20.507Z,12.80
2023-01-04T02:46:34.700Z,13.20
2023-01-04T02:49:41.632Z,10.70
2023-01-04T02:52:30.178Z,10.30
2023-01-04T02:55:19.303Z,15.00
2023-01-04T02:58:27.951Z,16.40
2023-01-04T03:02:43.375Z,17.30
2023-01-04T03:06:16.054Z,13.80
2023-01-04T03:09:26.138Z,12.40
2023-01-04T03:12:32.866Z,15.30
2023-01-04T03:15:33.907Z,13.20
2023-01-04T03:18:30.050Z,19.00
2023-01-04T03:21:21.242Z,13.80
2023-01-04T03:24:28.988Z,16.80
2023-01-04T03:27:38.513Z,14.10
2023-01-04T03:30:49.487Z,13.90
2023-01-04T03:33:59.446Z,14.20
2023-01-04T03:37:19.858Z,16.10
2023-01-04T03:40:50.288Z,12.40
2023-01-04T03:44:09.866Z,13.00
2023-01-04T03:47:27.692Z,15.20
2023-01-04T03:50:32.152Z,14.20
2023-01-04T03:53:21.603Z,15.20
2023-01-04T03:56:11.746Z,10.70
2023-01-04T03:59:00.651Z,11.70
2023-01-04T04:01:50.240Z,13.30
2023-01-04T04:04:57.000Z,19.10
2023-01-04T04:08:04.558Z,13.30
2023-01-04T04:10:53.771Z,14.30
2023-01-04T04:13:42.019Z,14.00
2023-01-04T04:16:30.372Z,10.80
2023-01-04T04:19:19.224Z,10.20
2023-01-04T04:22:07.674Z,13.50
2023-01-04T04:24:55.712Z,10.80
2023-01-04T04:27:44.255Z,12.20
2023-01-04T04:30:32.757Z,13.90
2023-01-04T04:33:21.174Z,14.60
2023-01-04T04:36:10.519Z,13.20
2023-01-04T04:38:58.830Z,11.10
2023-01-04T04:41:47.139Z,15.30
2023-01-04T04:44:36.092Z,17.60
2023-01-04T04:47:24.750Z,11.60
2023-01-04T04:50:13.207Z,10.70
2023-01-04T04:53:01.889Z,13.40
2023-01-04T04:55:54.487Z,11.70
2023-01-04T04:58:42.540Z,13.10
2023-01-04T05:01:31.144Z,15.10
2023-01-04T05:04:19.961Z,10.90
2023-01-04T05:07:12.487Z,11.80
2023-01-04T05:10:01.157Z,10.50
2023-01-04T05:13:04.233Z,12.00
2023-01-04T05:15:54.535Z,15.90
2023-01-04T05:18:42.836Z,11.10
2023-01-04T05:21:31.141Z,14.30
2023-01-04T05:24:19.901Z,14.50
2023-01-04T05:27:07.962Z,13.90
2023-01-04T05:30:14.832Z,12.40
2023-01-04T05:33:04.532Z,14.00
2023-01-04T05:35:54.876Z,13.10
2023-01-04T05:38:43.042Z,14.50
2023-01-04T05:41:49.821Z,14.50
2023-01-04T05:44:38.201Z,13.20
2023-01-04T05:47:28.438Z,12.30
2023-01-04T05:50:16.912Z,13.20
2023-01-04T05:53:08.154Z,13.60
2023-01-04T05:55:56.580Z,15.10
2023-01-04T05:58:44.860Z,10.60
2023-01-04T06:01:33.246Z,17.90
2023-01-04T06:04:21.214Z,12.20
2023-01-04T06:07:09.559Z,15.20
2023-01-04T06:09:58.436Z,15.20
2023-01-04T06:12:48.026Z,17.00
2023-01-04T06:15:42.835Z,16.90
2023-01-04T06:18:31.962Z,16.50
2023-01-04T06:21:20.468Z,18.30
2023-01-04T06:24:11.632Z,17.60
2023-01-04T06:27:01.430Z,16.20
2023-01-04T06:29:49.569Z,18.60
2023-01-04T06:32:37.809Z,14.20
2023-01-04T06:35:26.515Z,16.70
2023-01-04T06:38:15.025Z,13.90
2023-01-04T06:41:03.279Z,16.30
2023-01-04T06:43:51.703Z,18.50
2023-01-04T06:46:41.489Z,15.60
2023-01-04T06:49:29.917Z,14.70
2023-01-04T06:52:18.188Z,15.40
2023-01-04T06:55:09.738Z,14.50
2023-01-04T06:57:59.608Z,15.60
2023-01-04T07:00:48.039Z,15.30
2023-01-04T07:03:36.349Z,16.90
2023-01-04T07:06:25.057Z,15.50
2023-01-04T07:09:14.041Z,17.70
2023-01-04T07:12:03.654Z,15.80
2023-01-04T07:14:52.376Z,14.80
2023-01-04T07:17:41.008Z,13.10
2023-01-04T07:20:29.982Z,12.90
2023-01-04T07:23:18.173Z,20.40
2023-01-04T07:26:08.601Z,13.10
2023-01-04T07:29:15.807Z,12.50
2023-01-04T07:32:07.697Z,10.10
2023-01-04T07:35:00.011Z,13.80
2023-01-04T07:37:52.164Z,12.60
2023-01-04T07:40:56.657Z,13.50
2023-01-04T07:43:46.813Z,11.10
2023-01-04T07:46:35.906Z,14.70
2023-01-04T07:49:25.047Z,15.00
2023-01-04T07:52:14.435Z,18.90
2023-01-04T07:55:02.675Z,14.80
2023-01-04T07:57:54.531Z,14.70
2023-01-04T08:00:42.586Z,13.50
2023-01-04T08:03:30.803Z,14.50
2023-01-04T08:06:21.465Z,13.00
2023-01-04T08:09:12.204Z,15.50
2023-01-04T08:12:00.965Z,15.90
2023-01-04T08:14:52.260Z,16.20
2023-01-04T08:17:41.537Z,13.10
2023-01-04T08:20:29.486Z,15.50
2023-01-04T08:23:19.866Z,14.50
2023-01-04T08:26:12.645Z,14.00
2023-01-04T08:29:00.815Z,16.10
2023-01-04T08:31:49.441Z,12.70
2023-01-04T08:34:37.766Z,10.70
2023-01-04T08:37:25.701Z,15.50
2023-01-04T08:40:13.863Z,14.40
2023-01-04T08:43:04.855Z,15.20
2023-01-04T08:45:55.602Z,14.10
2023-01-04T08:48:44.544Z,13.70
2023-01-04T08:51:33.081Z,12.80
2023-01-04T08:54:22.976Z,14.90
2023-01-04T08:57:11.315Z,13.40
2023-01-04T08:59:59.549Z,12.70
2023-01-04T09:02:48.276Z,15.20
2023-01-04T09:05:37.285Z,14.60
2023-01-04T09:08:25.312Z,14.60
2023-01-04T09:11:17.086Z,12.60
2023-01-04T09:14:08.427Z,14.20
2023-01-04T09:16:57.559Z,14.10
2023-01-04T09:19:46.241Z,12.60
2023-01-04T09:22:37.494Z,15.50
2023-01-04T09:25:26.071Z,13.30
2023-01-04T09:28:14.344Z,16.00
2023-01-04T09:31:15.352Z,14.90
2023-01-04T09:34:19.191Z,17.10
2023-01-04T09:37:07.513Z,15.90
2023-01-04T09:39:55.855Z,14.10
2023-01-04T09:42:45.522Z,14.80
2023-01-04T09:45:34.209Z,19.00
2023-01-04T09:48:29.472Z,18.00
2023-01-04T09:51:20.842Z,18.00
2023-01-04T09:54:20.753Z,19.70
2023-01-04T09:57:42.979Z,21.80
2023-01-04T10:00:45.004Z,19.50
2023-01-04T10:03:40.331Z,19.60
2023-01-04T10:06:33.965Z,21.30
2023-01-04T10:09:23.558Z,19.30
2023-01-04T10:12:31.916Z,25.10
2023-01-04T10:15:41.467Z,22.70
2023-01-04T10:19:17.070Z,20.50
2023-01-04T10:22:54.890Z,23.90
2023-01-04T10:26:16.186Z,24.50
2023-01-04T10:29:30.401Z,16.70
2023-01-04T10:32:29.002Z,21.60
2023-01-04T10:35:28.168Z,18.60
2023-01-04T10:38:23.953Z,20.30
2023-01-04T10:41:21.753Z,21.90
2023-01-04T10:44:39.430Z,19.80
2023-01-04T10:47:39.958Z,23.50
2023-01-04T10:50:31.684Z,24.20
2023-01-04T10:53:48.700Z,22.70
2023-01-04T10:56:49.539Z,21.80
2023-01-04T10:59:56.052Z,26.60
2023-01-04T11:03:13.455Z,26.60
2023-01-04T11:06:25.220Z,22.80
2023-01-04T11:09:27.960Z,20.20
2023-01-04T11:12:19.336Z,24.40
2023-01-04T11:15:08.722Z,21.10
2023-01-04T11:18:00.659Z,27.00
2023-01-04T11:20:49.921Z,24.10
2023-01-04T11:23:38.803Z,23.60
2023-01-04T11:26:38.969Z,18.50
2023-01-04T11:30:12.397Z,23.10
2023-01-04T11:33:20.024Z,23.80
2023-01-04T11:36:08.428Z,24.20
2023-01-04T11:38:58.037Z,20.30
2023-01-04T11:42:05.237Z,27.30
2023-01-04T11:45:00.315Z,25.70
2023-01-04T11:47:54.752Z,27.40
2023-01-04T11:50:48.730Z,23.80
2023-01-04T11:53:38.134Z,20.00
2023-01-04T11:56:52.692Z,27.50
2023-01-04T11:59:41.856Z,25.30
2023-01-04T12:03:00.067Z,25.60
2023-01-04T12:05:41.336Z,24.70
2023-01-04T12:08:37.209Z,30.20
2023-01-04T12:11:31.690Z,28.10
2023-01-04T12:14:34.500Z,26.60
2023-01-04T12:17:43.529Z,27.80
2023-01-04T12:20:32.237Z,28.80
2023-01-04T12:23:21.276Z,23.20
2023-01-04T12:26:12.486Z,28.40
2023-01-04T12:29:22.797Z,26.80
2023-01-04T12:32:11.741Z,26.20
2023-01-04T12:35:00.120Z,22.50
2023-01-04T12:37:50.995Z,26.50
2023-01-04T12:40:45.221Z,24.70
2023-01-04T12:43:44.669Z,23.70
2023-01-04T12:47:01.197Z,28.90
2023-01-04T12:50:16.607Z,23.90
2023-01-04T12:56:14.489Z,25.30
2023-01-04T12:59:25.202Z,19.40
2023-01-04T13:02:24.311Z,22.60
2023-01-04T13:08:33.724Z,28.80
2023-01-04T13:12:09.373Z,24.00
2023-01-04T13:15:06.182Z,23.40
2023-01-04T13:17:54.665Z,27.00
2023-01-04T13:20:45.163Z,25.20
2023-01-04T13:23:34.123Z,24.20
2023-01-04T13:26:49.089Z,21.30
2023-01-04T13:29:37.339Z,22.10
2023-01-04T13:32:46.925Z,22.40
2023-01-04T13:35:43.216Z,21.40
2023-01-04T13:38:34.517Z,25.30
2023-01-04T13:41:23.507Z,24.20
2023-01-04T13:44:32.922Z,19.20
2023-01-04T13:47:38.081Z,23.00
2023-01-04T13:50:47.317Z,22.20
2023-01-04T13:53:36.080Z,21.40
2023-01-04T13:56:28.126Z,22.00
2023-01-04T13:59:17.177Z,23.20
2023-01-04T14:02:18.238Z,20.40
2023-01-04T14:05:18.454Z,19.10
2023-01-04T14:08:11.680Z,24.60
2023-01-04T14:11:00.087Z,21.70
2023-01-04T14:13:48.754Z,17.90
2023-01-04T14:16:37.697Z,19.90
2023-01-04T14:20:00.144Z,17.20
2023-01-04T14:22:48.196Z,21.50
2023-01-04T14:25:49.529Z,16.60
2023-01-04T14:28:49.585Z,18.30
2023-01-04T14:31:38.735Z,16.90
2023-01-04T14:34:27.472Z,15.00
2023-01-04T14:37:15.917Z,14.10
2023-01-04T14:40:15.873Z,14.60
2023-01-04T14:43:35.200Z,15.40
2023-01-04T14:46:23.855Z,14.40
2023-01-04T14:49:12.831Z,13.20
2023-01-04T14:52:04.264Z,14.10
2023-01-04T14:54:52.804Z,16.30
2023-01-04T14:57:43.609Z,15.10
2023-01-04T15:00:31.923Z,16.40
2023-01-04T15:03:20.684Z,15.90
2023-01-04T15:06:11.423Z,16.00
2023-01-04T15:08:59.536Z,13.40
2023-01-04T15:11:48.117Z,14.50
2023-01-04T15:14:36.494Z,13.80
2023-01-04T15:17:25.119Z,13.50
2023-01-04T15:20:14.526Z,14.70
2023-01-04T15:23:02.903Z,15.00
2023-01-04T15:25:51.913Z,14.60
2023-01-04T15:28:40.528Z,14.70
2023-01-04T15:31:35.000Z,14.60
2023-01-04T15:34:28.564Z,11.40
2023-01-04T15:37:23.592Z,13.00
2023-01-04T15:40:16.174Z,10.50
2023-01-04T15:43:05.237Z,12.40
2023-01-04T15:45:55.740Z,14.10
2023-01-04T15:48:44.229Z,13.00
2023-01-04T15:51:32.122Z,11.10
2023-01-04T15:54:21.996Z,10.80
2023-01-04T15:57:10.489Z,13.80
2023-01-04T15:59:59.069Z,13.40
2023-01-04T16:02:47.617Z,14.00
2023-01-04T16:05:35.980Z,13.30
2023-01-04T16:08:24.101Z,10.50
2023-01-04T16:11:19.089Z,12.10
2023-01-04T16:14:07.319Z,12.40
2023-01-04T16:16:56.993Z,10.10
2023-01-04T16:19:45.333Z,10.60
2023-01-04T16:22:33.634Z,9.40
2023-01-04T16:25:24.520Z,8.50
2023-01-04T16:28:13.057Z,9.20
2023-01-04T16:31:04.704Z,8.70
2023-01-04T16:33:54.401Z,9.10
2023-01-04T16:36:42.687Z,8.60
2023-01-04T16:40:04.782Z,10.30
2023-01-04T16:42:40.692Z,11.00
2023-01-04T16:45:29.035Z,10.00
2023-01-04T16:48:18.729Z,7.70
2023-01-04T16:51:08.708Z,10.10
2023-01-04T16:53:57.556Z,9.20
2023-01-04T16:56:49.268Z,8.10
2023-01-04T16:59:37.629Z,9.50
2023-01-04T17:02:25.846Z,8.60
2023-01-04T17:05:14.124Z,8.30
2023-01-04T17:08:02.928Z,8.90
2023-01-04T17:10:51.231Z,7.30
2023-01-04T17:13:40.752Z,7.60
2023-01-04T17:16:34.448Z,8.40
2023-01-04T17:19:23.443Z,7.90
2023-01-04T17:22:12.010Z,8.30
2023-01-04T17:25:00.489Z,7.70
2023-01-04T17:27:48.794Z,6.20
2023-01-04T17:30:41.661Z,7.40
2023-01-04T17:33:30.032Z,9.40
2023-01-04T17:36:21.015Z,9.80
2023-01-04T17:39:09.266Z,7.50
2023-01-04T17:41:57.803Z,7.50
2023-01-04T17:44:49.497Z,8.00
2023-01-04T17:47:39.108Z,7.70
2023-01-04T17:50:27.588Z,7.90
2023-01-04T17:53:16.221Z,7.60
2023-01-04T17:56:10.333Z,9.00
2023-01-04T17:59:02.700Z,7.90
2023-01-04T18:01:51.578Z,7.30
2023-01-04T18:04:40.968Z,9.00
2023-01-04T18:07:29.632Z,6.60
2023-01-04T18:10:27.197Z,7.80
2023-01-04T18:13:27.317Z,7.90
2023-01-04T18:16:24.728Z,7.20
2023-01-04T18:19:13.438Z,7.00
2023-01-04T18:22:02.295Z,6.40
2023-01-04T18:24:51.380Z,7.80
2023-01-04T18:27:40.224Z,8.00
2023-01-04T18:30:28.676Z,7.10
2023-01-04T18:33:17.026Z,8.40
2023-01-04T18:36:07.708Z,6.90
2023-01-04T18:38:58.523Z,7.70
2023-01-04T18:41:47.593Z,6.70
2023-01-04T18:44:36.943Z,5.80
2023-01-04T18:47:28.187Z,5.60
2023-01-04T18:50:18.022Z,5.80
2023-01-04T18:53:07.234Z,6.00
2023-01-04T18:55:55.265Z,6.50
2023-01-04T18:58:43.259Z,6.30
2023-01-04T19:01:31.983Z,7.00
2023-01-04T19:04:20.571Z,6.80
2023-01-04T19:07:09.292Z,8.20
2023-01-04T19:09:57.756Z,6.50
2023-01-04T19:12:46.825Z,7.50
2023-01-04T19:15:36.466Z,7.60
2023-01-04T19:18:29.261Z,7.70
2023-01-04T19:21:17.565Z,7.10
2023-01-04T19:24:06.632Z,7.70
2023-01-04T19:26:55.514Z,7.70
2023-01-04T19:29:44.652Z,8.20
2023-01-04T19:32:33.876Z,7.70
2023-01-04T19:35:22.697Z,7.90
2023-01-04T19:38:11.902Z,8.00
2023-01-04T19:41:01.635Z,8.90
2023-01-04T19:43:51.320Z,8.00
2023-01-04T19:46:40.598Z,8.00
2023-01-04T19:49:28.723Z,9.80
2023-01-04T19:52:16.989Z,9.20
2023-01-04T19:55:06.549Z,10.90
2023-01-04T19:57:55.099Z,10.00
2023-01-04T20:00:54.225Z,10.10
2023-01-04T20:03:43.948Z,9.60
2023-01-04T20:06:33.645Z,9.40
2023-01-04T20:09:26.106Z,7.80
2023-01-04T20:12:15.901Z,11.20
2023-01-04T20:15:04.549Z,8.00
2023-01-04T20:17:52.883Z,11.80
2023-01-04T20:20:47.906Z,9.50
2023-01-04T20:23:37.080Z,10.50
2023-01-04T20:26:25.859Z,8.70
2023-01-04T20:29:14.858Z,8.80
2023-01-04T20:32:04.767Z,8.90
2023-01-04T20:34:53.120Z,9.30
2023-01-04T20:37:41.591Z,7.70
2023-01-04T20:40:30.058Z,10.20
2023-01-04T20:43:35.981Z,8.60
2023-01-04T20:46:33.021Z,9.50
2023-01-04T20:49:21.994Z,9.90
2023-01-04T20:52:10.504Z,8.30
2023-01-04T20:54:58.387Z,6.90
2023-01-04T20:57:46.945Z,6.60
2023-01-04T21:00:37.403Z,7.60
2023-01-04T21:03:25.535Z,6.40
2023-01-04T21:06:18.454Z,6.90
2023-01-04T21:09:06.881Z,5.50
2023-01-04T21:11:56.035Z,5.40
2023-01-04T21:14:44.520Z,6.50
2023-01-04T21:17:32.544Z,6.00
2023-01-04T21:20:21.833Z,5.90
2023-01-04T21:23:18.211Z,6.30
2023-01-04T21:26:09.484Z,5.90
2023-01-04T21:28:57.718Z,4.80
2023-01-04T21:31:46.267Z,6.30
2023-01-04T21:34:35.238Z,5.40
2023-01-04T21:37:25.004Z,6.10
2023-01-04T21:40:29.373Z,5.60
2023-01-04T21:43:18.743Z,7.80
2023-01-04T21:46:11.189Z,6.70
2023-01-04T21:49:01.837Z,5.20
2023-01-04T21:51:49.895Z,6.00
2023-01-04T21:54:40.019Z,5.70
2023-01-04T21:57:30.295Z,6.60
2023-01-04T22:00:18.218Z,5.80
2023-01-04T22:03:06.852Z,6.60
2023-01-04T22:06:02.155Z,6.60
2023-01-04T22:08:53.120Z,6.50
2023-01-04T22:11:48.629Z,8.60
2023-01-04T22:14:39.408Z,6.40
2023-01-04T22:17:29.764Z,5.60
2023-01-04T22:20:18.115Z,5.60
2023-01-04T22:23:05.983Z,5.80
2023-01-04T22:25:57.291Z,6.10
2023-01-04T22:28:46.786Z,6.60
2023-01-04T22:31:34.985Z,9.70
2023-01-04T22:34:25.230Z,6.30
2023-01-04T22:37:14.381Z,6.10
2023-01-04T22:40:03.170Z,5.30
2023-01-04T22:42:53.496Z,5.50
2023-01-04T22:45:41.899Z,5.20
2023-01-04T22:48:30.228Z,6.10
2023-01-04T22:51:20.554Z,5.60
2023-01-04T22:54:19.312Z,6.50
2023-01-04T22:57:11.573Z,6.50
2023-01-04T23:00:04.312Z,5.90
2023-01-04T23:02:52.736Z,6.10
2023-01-04T23:05:41.620Z,7.40
2023-01-04T23:08:30.167Z,6.30
2023-01-04T23:11:20.775Z,5.90
2023-01-04T23:14:16.957Z,6.80
2023-01-04T23:17:05.482Z,7.60
2023-01-04T23:19:57.756Z,7.90
2023-01-04T23:22:49.018Z,6.00
2023-01-04T23:25:37.218Z,6.00
2023-01-04T23:28:25.925Z,6.10
2023-01-04T23:31:18.127Z,6.00
2023-01-04T23:34:07.635Z,6.00
2023-01-04T23:36:55.800Z,5.80
2023-01-04T23:39:43.778Z,6.30
2023-01-04T23:42:31.747Z,6.30
2023-01-04T23:45:20.609Z,6.60
2023-01-04T23:48:09.571Z,6.20
2023-01-04T23:50:58.225Z,7.60
2023-01-04T23:53:46.792Z,6.70
2023-01-04T23:56:36.867Z,8.40
2023-01-04T23:59:25.876Z,6.60
